createdAt,value
2022-08-16T00:29:19.058Z,997.7
2022-08-16T00:30:00.401Z,997.72
2022-08-16T00:30:39.861Z,997.71
2022-08-16T00:31:24.064Z,997.73
2022-08-16T00:32:05.794Z,997.71
2022-08-16T00:32:41.405Z,997.74
2022-08-16T00:33:21.788Z,997.76
2022-08-16T00:34:04.411Z,997.75
2022-08-16T00:34:44.857Z,997.78
2022-08-16T00:35:23.218Z,997.7
2022-08-16T00:36:03.697Z,997.71
2022-08-16T00:36:47.173Z,997.72
2022-08-16T00:37:25.034Z,997.74
2022-08-16T00:38:40.372Z,997.71
2022-08-16T00:38:45.612Z,997.69
2022-08-16T00:39:26.138Z,997.67
2022-08-16T00:40:06.589Z,997.7
2022-08-16T00:40:50.670Z,997.76
2022-08-16T00:41:27.610Z,997.68
2022-08-16T00:42:10.072Z,997.72
2022-08-16T00:42:48.761Z,997.71
2022-08-16T00:43:40.961Z,997.7
2022-08-16T00:44:09.434Z,997.72
2022-08-16T00:44:49.868Z,997.69
2022-08-16T00:45:30.342Z,997.76
2022-08-16T00:46:22.523Z,997.73
2022-08-16T00:46:52.583Z,997.72
2022-08-16T00:47:31.889Z,997.75
2022-08-16T00:50:45.595Z,997.79
2022-08-16T00:51:26.226Z,997.81
2022-08-16T00:52:29.793Z,997.82
2022-08-16T00:52:50.710Z,997.82
2022-08-16T00:53:30.771Z,997.84
2022-08-16T00:54:08.227Z,997.84
2022-08-16T00:54:48.663Z,997.83
2022-08-16T00:55:36.880Z,997.84
2022-08-16T00:56:57.351Z,997.84
2022-08-16T00:57:33.049Z,997.81
2022-08-16T00:58:12.859Z,997.83
2022-08-16T00:58:51.638Z,997.87
2022-08-16T00:59:32.833Z,997.87
2022-08-16T01:00:12.616Z,997.81
2022-08-16T01:00:53.846Z,997.86
2022-08-16T01:01:33.548Z,997.86
2022-08-16T01:02:30.184Z,997.9
2022-08-16T01:02:54.437Z,997.88
2022-08-16T01:03:35.228Z,997.88
2022-08-16T01:04:25.632Z,997.87
2022-08-16T01:05:09.783Z,997.91
2022-08-16T01:05:36.317Z,997.9
2022-08-16T01:06:32.901Z,997.89
2022-08-16T01:07:01.565Z,997.88
2022-08-16T01:07:51.482Z,997.89
2022-08-16T01:08:34.950Z,997.91
2022-08-16T01:09:00.014Z,997.92
2022-08-16T01:09:42.735Z,997.86
2022-08-16T01:10:19.751Z,997.92
2022-08-16T01:11:00.264Z,997.91
2022-08-16T01:11:54.208Z,997.9
2022-08-16T01:12:21.807Z,997.89
2022-08-16T01:13:01.711Z,997.89
2022-08-16T01:13:42.145Z,997.89
2022-08-16T01:14:25.051Z,997.88
2022-08-16T01:15:03.089Z,997.9
2022-08-16T01:15:43.614Z,997.86
2022-08-16T01:16:24.172Z,997.88
2022-08-16T01:17:04.583Z,997.91
2022-08-16T01:17:45.048Z,997.91
2022-08-16T01:18:39.677Z,997.91
2022-08-16T01:19:06.053Z,997.91
2022-08-16T01:19:46.554Z,997.93
2022-08-16T01:20:30.082Z,997.9
2022-08-16T01:21:07.470Z,997.94
2022-08-16T01:22:47.358Z,997.89
2022-08-16T01:23:09.038Z,997.91
2022-08-16T01:23:58.286Z,997.93
2022-08-16T01:24:44.890Z,997.93
2022-08-16T01:25:10.367Z,997.92
2022-08-16T01:25:58.257Z,997.93
2022-08-16T01:26:33.908Z,997.93
2022-08-16T01:27:11.780Z,997.93
2022-08-16T01:27:52.272Z,997.9
2022-08-16T01:28:35.789Z,997.92
2022-08-16T01:29:13.281Z,997.92
2022-08-16T01:29:57.416Z,997.91
2022-08-16T01:30:34.232Z,997.93
2022-08-16T01:31:14.680Z,997.91
2022-08-16T01:31:55.121Z,997.91
2022-08-16T01:32:35.576Z,997.91
2022-08-16T01:33:16.069Z,997.93
2022-08-16T01:33:56.522Z,997.97
2022-08-16T01:34:46.968Z,997.95
2022-08-16T01:35:17.868Z,997.96
2022-08-16T01:35:58.033Z,997.97
2022-08-16T01:36:38.520Z,997.95
2022-08-16T01:37:18.954Z,997.96
2022-08-16T01:37:59.419Z,997.95
2022-08-16T01:38:39.930Z,997.96
2022-08-16T01:39:20.384Z,997.92
2022-08-16T01:40:01.035Z,997.94
2022-08-16T01:40:41.491Z,997.95
2022-08-16T01:41:21.976Z,997.9
2022-08-16T01:42:02.416Z,997.94
2022-08-16T01:42:42.970Z,997.9
2022-08-16T01:43:23.528Z,997.87
2022-08-16T01:44:03.880Z,997.91
2022-08-16T01:44:44.333Z,997.9
2022-08-16T01:45:39.884Z,997.92
2022-08-16T01:46:30.339Z,997.91
2022-08-16T01:46:45.753Z,997.89
2022-08-16T01:47:26.305Z,997.87
2022-08-16T01:48:15.662Z,997.88
2022-08-16T01:48:47.251Z,997.86
2022-08-16T01:49:35.941Z,997.85
2022-08-16T01:50:41.665Z,997.84
2022-08-16T01:51:08.101Z,997.83
2022-08-16T01:51:29.046Z,997.83
2022-08-16T01:52:09.556Z,997.83
2022-08-16T01:52:50.105Z,997.78
2022-08-16T01:53:30.510Z,997.8
2022-08-16T01:54:10.947Z,997.79
2022-08-16T01:54:51.444Z,997.81
2022-08-16T01:55:35.523Z,997.81
2022-08-16T01:56:22.101Z,997.82
2022-08-16T01:56:52.892Z,997.78
2022-08-16T01:57:33.370Z,997.77
2022-08-16T01:58:13.845Z,997.79
2022-08-16T01:58:54.306Z,997.78
2022-08-16T01:59:34.774Z,997.79
2022-08-16T02:00:19.117Z,997.77
2022-08-16T02:00:55.703Z,997.81
2022-08-16T02:01:36.275Z,997.82
2022-08-16T02:02:22.232Z,997.81
2022-08-16T02:02:57.154Z,997.8
2022-08-16T02:03:37.598Z,997.81
2022-08-16T02:04:29.828Z,997.82
2022-08-16T02:04:58.552Z,997.79
2022-08-16T02:05:39.018Z,997.8
2022-08-16T02:06:34.004Z,997.81
2022-08-16T02:06:59.980Z,997.81
2022-08-16T02:07:43.953Z,997.79
2022-08-16T02:08:33.202Z,997.8
2022-08-16T02:09:01.426Z,997.78
2022-08-16T02:09:41.856Z,997.84
2022-08-16T02:10:22.321Z,997.85
2022-08-16T02:11:02.836Z,997.8
2022-08-16T02:11:47.960Z,997.82
2022-08-16T02:12:40.069Z,997.81
2022-08-16T02:13:04.348Z,997.81
2022-08-16T02:13:44.661Z,997.84
2022-08-16T02:14:26.451Z,997.79
2022-08-16T02:15:05.584Z,997.82
2022-08-16T02:15:46.058Z,997.8
2022-08-16T02:16:26.548Z,997.81
2022-08-16T02:17:07.033Z,997.8
2022-08-16T02:17:47.575Z,997.82
2022-08-16T02:18:27.995Z,997.79
2022-08-16T02:19:15.975Z,997.81
2022-08-16T02:19:58.302Z,997.79
2022-08-16T02:20:29.443Z,997.75
2022-08-16T02:21:09.901Z,997.8
2022-08-16T02:22:08.013Z,997.81
2022-08-16T02:22:33.996Z,997.78
2022-08-16T02:23:11.336Z,997.78
2022-08-16T02:23:55.620Z,997.74
2022-08-16T02:24:32.741Z,997.75
2022-08-16T02:25:14.529Z,997.75
2022-08-16T02:25:54.127Z,997.76
2022-08-16T02:26:34.322Z,997.77
2022-08-16T02:27:14.161Z,997.77
2022-08-16T02:27:54.602Z,997.76
2022-08-16T02:28:35.061Z,997.74
2022-08-16T02:29:15.527Z,997.78
2022-08-16T02:30:04.817Z,997.77
2022-08-16T02:30:37.419Z,997.76
2022-08-16T02:31:16.953Z,997.76
2022-08-16T02:32:04.254Z,997.77
2022-08-16T02:32:49.676Z,997.79
2022-08-16T02:33:18.416Z,997.76
2022-08-16T02:33:58.826Z,997.76
2022-08-16T02:34:40.749Z,997.77
2022-08-16T02:35:23.027Z,997.77
2022-08-16T02:36:00.365Z,997.77
2022-08-16T02:36:42.524Z,997.77
2022-08-16T02:37:21.184Z,997.78
2022-08-16T02:38:08.471Z,997.77
2022-08-16T02:38:42.087Z,997.78
2022-08-16T02:39:23.000Z,997.73
2022-08-16T02:40:03.168Z,997.74
2022-08-16T02:40:43.571Z,997.74
2022-08-16T02:41:23.986Z,997.73
2022-08-16T02:42:04.479Z,997.75
2022-08-16T02:42:44.976Z,997.77
2022-08-16T02:43:26.545Z,997.72
2022-08-16T02:44:05.924Z,997.73
2022-08-16T02:44:46.373Z,997.73
2022-08-16T02:45:27.952Z,997.72
2022-08-16T02:46:07.826Z,997.72
2022-08-16T02:46:49.788Z,997.71
2022-08-16T02:47:28.355Z,997.71
2022-08-16T02:48:30.133Z,997.74
2022-08-16T02:48:49.502Z,997.75
2022-08-16T02:49:32.361Z,997.73
2022-08-16T02:50:53.146Z,997.74
2022-08-16T02:50:53.262Z,997.75
2022-08-16T02:51:31.284Z,997.72
2022-08-16T02:52:11.613Z,997.77
2022-08-16T02:52:52.061Z,997.76
2022-08-16T02:53:32.558Z,997.74
2022-08-16T02:54:13.000Z,997.79
2022-08-16T02:54:54.650Z,997.78
2022-08-16T02:55:40.510Z,997.81
2022-08-16T02:56:14.714Z,997.8
2022-08-16T02:56:54.879Z,997.79
2022-08-16T02:57:35.352Z,997.78
2022-08-16T02:58:15.937Z,997.78
2022-08-16T02:59:39.653Z,997.78
2022-08-16T03:00:32.348Z,997.78
2022-08-16T03:00:57.924Z,997.77
2022-08-16T03:01:38.249Z,997.74
2022-08-16T03:02:18.810Z,997.74
2022-08-16T03:02:59.153Z,997.74
2022-08-16T03:04:29.489Z,997.71
2022-08-16T03:04:30.293Z,997.73
2022-08-16T03:05:00.588Z,997.74
2022-08-16T03:05:41.045Z,997.74
2022-08-16T03:06:38.990Z,997.72
2022-08-16T03:07:03.773Z,997.74
2022-08-16T03:07:42.464Z,997.75
2022-08-16T03:08:51.423Z,997.76
2022-08-16T03:09:03.471Z,997.73
2022-08-16T03:09:44.265Z,997.81
2022-08-16T03:10:31.924Z,997.74
2022-08-16T03:11:04.840Z,997.77
2022-08-16T03:11:45.315Z,997.79
2022-08-16T03:12:30.195Z,997.82
2022-08-16T03:13:12.318Z,997.82
2022-08-16T03:13:47.594Z,997.8
2022-08-16T03:14:27.228Z,997.78
2022-08-16T03:15:07.748Z,997.78
2022-08-16T03:15:49.673Z,997.83
2022-08-16T03:16:33.246Z,997.8
2022-08-16T03:17:09.103Z,997.79
2022-08-16T03:17:53.451Z,997.77
2022-08-16T03:18:34.346Z,997.79
2022-08-16T03:19:10.529Z,997.79
2022-08-16T03:19:59.710Z,997.8
2022-08-16T03:22:49.791Z,997.8
2022-08-16T03:23:35.677Z,997.79
2022-08-16T03:24:27.797Z,997.81
2022-08-16T03:24:51.177Z,997.81
2022-08-16T03:25:36.916Z,997.87
2022-08-16T03:26:12.073Z,997.77
2022-08-16T03:26:52.525Z,997.81
2022-08-16T03:27:33.082Z,997.82
2022-08-16T03:28:13.475Z,997.8
2022-08-16T03:28:53.916Z,997.81
2022-08-16T03:29:34.402Z,997.83
2022-08-16T03:30:15.336Z,997.85
2022-08-16T03:30:55.457Z,997.84
2022-08-16T03:31:40.519Z,997.82
2022-08-16T03:32:16.365Z,997.83
2022-08-16T03:32:56.848Z,997.86
2022-08-16T03:33:37.326Z,997.79
2022-08-16T03:34:17.811Z,997.81
2022-08-16T03:34:58.360Z,997.84
2022-08-16T03:35:40.108Z,997.8
2022-08-16T03:36:20.047Z,997.85
2022-08-16T03:36:59.851Z,997.85
2022-08-16T03:38:02.219Z,997.85
2022-08-16T03:38:32.281Z,997.83
2022-08-16T03:39:01.220Z,997.83
2022-08-16T03:40:30.582Z,997.86
2022-08-16T03:41:02.937Z,997.89
2022-08-16T03:41:49.915Z,997.87
2022-08-16T03:42:23.731Z,997.85
2022-08-16T03:43:19.394Z,997.84
2022-08-16T03:43:50.973Z,997.85
2022-08-16T03:44:40.631Z,997.84
2022-08-16T03:45:05.689Z,997.86
2022-08-16T03:45:46.157Z,997.86
2022-08-16T03:46:44.707Z,997.86
2022-08-16T03:47:10.228Z,997.88
2022-08-16T03:47:47.645Z,997.85
2022-08-16T03:48:31.581Z,997.89
2022-08-16T03:49:08.620Z,997.86
2022-08-16T03:49:51.437Z,997.88
2022-08-16T03:50:29.549Z,997.83
2022-08-16T03:51:10.027Z,997.83
2022-08-16T03:51:51.904Z,997.86
2022-08-16T03:53:11.416Z,997.82
2022-08-16T03:53:57.536Z,997.88
2022-08-16T03:54:32.395Z,997.87
2022-08-16T03:55:14.645Z,997.91
2022-08-16T03:55:53.366Z,997.85
2022-08-16T03:56:33.886Z,997.87
2022-08-16T03:57:15.653Z,997.87
2022-08-16T03:57:54.897Z,997.86
2022-08-16T03:58:35.429Z,997.85
2022-08-16T03:59:15.883Z,997.87
2022-08-16T03:59:56.386Z,997.86
2022-08-16T04:00:41.093Z,997.84
2022-08-16T04:01:17.453Z,997.85
2022-08-16T04:01:57.869Z,997.85
2022-08-16T04:02:38.345Z,997.85
2022-08-16T04:03:18.860Z,997.84
2022-08-16T04:03:59.365Z,997.84
2022-08-16T04:04:39.822Z,997.85
2022-08-16T04:06:02.246Z,997.88
2022-08-16T04:06:41.286Z,997.84
2022-08-16T04:07:21.782Z,997.9
2022-08-16T04:08:02.297Z,997.92
2022-08-16T04:08:42.797Z,997.87
2022-08-16T04:09:23.226Z,997.89
2022-08-16T04:10:35.707Z,997.89
2022-08-16T04:10:44.200Z,997.92
2022-08-16T04:11:24.751Z,997.92
2022-08-16T04:12:10.488Z,997.93
2022-08-16T04:12:52.618Z,997.9
2022-08-16T04:13:59.780Z,997.94
2022-08-16T04:14:08.847Z,997.92
2022-08-16T04:14:48.142Z,997.9
2022-08-16T04:15:27.668Z,997.92
2022-08-16T04:17:26.856Z,997.92
2022-08-16T04:18:05.877Z,997.95
2022-08-16T04:18:46.490Z,997.92
2022-08-16T04:19:31.631Z,997.88
2022-08-16T04:20:07.806Z,997.94
2022-08-16T04:20:48.264Z,997.89
2022-08-16T04:21:29.235Z,997.91
2022-08-16T04:22:09.578Z,997.92
2022-08-16T04:22:49.718Z,997.94
2022-08-16T04:23:30.153Z,997.96
2022-08-16T04:24:10.665Z,997.95
2022-08-16T04:24:53.242Z,997.94
2022-08-16T04:25:31.651Z,997.97
2022-08-16T04:26:16.583Z,998
2022-08-16T04:26:53.288Z,997.98
2022-08-16T04:27:34.525Z,998.02
2022-08-16T04:28:28.962Z,998.03
2022-08-16T04:28:54.990Z,998.04
2022-08-16T04:29:43.301Z,998.01
2022-08-16T04:30:32.017Z,998.02
2022-08-16T04:30:56.258Z,998.03
2022-08-16T04:31:37.009Z,998.02
2022-08-16T04:32:17.463Z,998.06
2022-08-16T04:32:58.011Z,998.05
2022-08-16T04:34:18.914Z,998.08
2022-08-16T04:35:02.229Z,998.06
2022-08-16T04:35:39.892Z,998.07
2022-08-16T04:36:20.607Z,998.1
2022-08-16T04:37:01.172Z,998.14
2022-08-16T04:37:42.125Z,998.1
2022-08-16T04:38:21.891Z,998.12
2022-08-16T04:39:02.367Z,998.08
2022-08-16T04:39:46.432Z,998.1
2022-08-16T04:40:25.099Z,998.08
2022-08-16T04:41:03.872Z,998.11
2022-08-16T04:41:44.381Z,998.08
2022-08-16T04:42:26.101Z,998.11
2022-08-16T04:43:05.288Z,998.16
2022-08-16T04:47:01.636Z,998.18
2022-08-16T04:47:21.305Z,998.16
2022-08-16T04:47:45.584Z,998.13
2022-08-16T04:48:28.652Z,998.15
2022-08-16T04:49:47.971Z,998.21
2022-08-16T04:50:29.818Z,998.15
2022-08-16T04:51:11.897Z,998.21
2022-08-16T04:51:53.781Z,998.17
2022-08-16T04:52:34.381Z,998.19
2022-08-16T04:53:10.381Z,998.24
2022-08-16T04:53:51.895Z,998.26
2022-08-16T04:54:31.450Z,998.28
2022-08-16T04:55:12.217Z,998.27
2022-08-16T04:55:53.204Z,998.32
2022-08-16T04:56:32.939Z,998.28
2022-08-16T04:57:13.416Z,998.31
2022-08-16T04:57:54.008Z,998.29
2022-08-16T04:58:38.226Z,998.31
2022-08-16T04:59:14.960Z,998.34
2022-08-16T04:59:55.460Z,998.28
2022-08-16T05:00:35.938Z,998.36
2022-08-16T05:01:16.486Z,998.3
2022-08-16T05:01:59.486Z,998.34
2022-08-16T05:02:41.358Z,998.35
2022-08-16T05:03:18.759Z,998.36
2022-08-16T05:03:59.546Z,998.38
2022-08-16T05:04:39.741Z,998.34
2022-08-16T05:05:20.268Z,998.36
2022-08-16T05:06:02.309Z,998.33
2022-08-16T05:06:42.569Z,998.33
2022-08-16T05:07:21.866Z,998.36
2022-08-16T05:08:27.873Z,998.34
2022-08-16T05:08:47.257Z,998.39
2022-08-16T05:09:23.390Z,998.4
2022-08-16T05:10:03.836Z,998.34
2022-08-16T05:10:44.365Z,998.37
2022-08-16T05:11:24.825Z,998.41
2022-08-16T05:12:45.847Z,998.43
2022-08-16T05:13:35.115Z,998.46
2022-08-16T05:14:07.475Z,998.42
2022-08-16T05:15:01.512Z,998.41
2022-08-16T05:15:28.021Z,998.45
2022-08-16T05:16:08.300Z,998.45
2022-08-16T05:16:48.809Z,998.43
2022-08-16T05:18:09.745Z,998.42
2022-08-16T05:18:50.294Z,998.41
2022-08-16T05:19:35.802Z,998.41
2022-08-16T05:20:35.389Z,998.41
2022-08-16T05:23:10.157Z,998.46
2022-08-16T05:23:51.879Z,998.5
2022-08-16T05:24:31.336Z,998.52
2022-08-16T05:25:11.923Z,998.49
2022-08-16T05:25:52.441Z,998.5
2022-08-16T05:26:32.925Z,998.5
2022-08-16T05:27:13.444Z,998.52
2022-08-16T05:27:53.945Z,998.48
2022-08-16T05:28:37.807Z,998.47
2022-08-16T05:29:15.749Z,998.52
2022-08-16T05:30:37.138Z,998.55
2022-08-16T05:32:57.929Z,998.52
2022-08-16T05:33:39.011Z,998.51
2022-08-16T05:34:20.136Z,998.5
2022-08-16T05:34:59.999Z,998.51
2022-08-16T05:35:40.467Z,998.52
2022-08-16T05:36:21.100Z,998.51
2022-08-16T05:37:01.582Z,998.5
2022-08-16T05:37:42.200Z,998.51
2022-08-16T05:38:31.278Z,998.51
2022-08-16T05:39:03.214Z,998.54
2022-08-16T05:39:43.709Z,998.54
2022-08-16T05:40:28.147Z,998.54
2022-08-16T05:41:09.352Z,998.54
2022-08-16T05:41:51.673Z,998.57
2022-08-16T05:42:35.740Z,998.62
2022-08-16T05:43:11.938Z,998.62
2022-08-16T05:43:50.773Z,998.62
2022-08-16T05:44:31.330Z,998.69
2022-08-16T05:45:12.039Z,998.66
2022-08-16T05:45:52.508Z,998.66
2022-08-16T05:46:33.068Z,998.69
2022-08-16T05:47:15.187Z,998.71
2022-08-16T05:47:59.402Z,998.68
2022-08-16T05:48:34.941Z,998.67
2022-08-16T05:49:16.276Z,998.69
2022-08-16T05:49:56.746Z,998.66
2022-08-16T05:50:37.288Z,998.68
2022-08-16T05:51:23.536Z,998.67
2022-08-16T05:51:59.185Z,998.67
2022-08-16T05:52:39.666Z,998.73
2022-08-16T06:31:14.265Z,998.93
2022-08-16T06:31:55.133Z,998.97
2022-08-16T06:32:37.650Z,999.01
2022-08-16T06:33:19.559Z,999
2022-08-16T06:33:56.879Z,999.03
2022-08-16T06:34:55.154Z,999.04
2022-08-16T06:35:18.389Z,999.08
2022-08-16T06:35:59.272Z,999.07
2022-08-16T06:36:39.638Z,999.07
2022-08-16T06:37:20.107Z,999.06
2022-08-16T06:38:00.792Z,999.04
2022-08-16T06:38:52.232Z,999.06
2022-08-16T06:39:22.134Z,999.05
2022-08-16T06:40:02.736Z,999.07
2022-08-16T06:40:49.100Z,999.06
2022-08-16T06:41:24.254Z,999.07
2022-08-16T06:42:04.159Z,999.05
2022-08-16T06:44:20.578Z,999.04
2022-08-16T06:44:58.395Z,999.08
2022-08-16T06:45:43.281Z,999.02
2022-08-16T06:46:19.499Z,999.04
2022-08-16T06:48:53.008Z,999.06
2022-08-16T06:49:34.963Z,999.06
2022-08-16T06:50:19.255Z,999.09
2022-08-16T06:52:58.733Z,999.1
2022-08-16T06:54:36.607Z,999.05
2022-08-16T06:55:17.299Z,999.08
2022-08-16T06:55:57.959Z,999.09
2022-08-16T06:56:38.550Z,999.09
2022-08-16T06:57:19.047Z,999.14
2022-08-16T06:57:59.863Z,999.09
2022-08-16T06:58:41.016Z,999.1
2022-08-16T07:03:54.742Z,999.08
2022-08-16T07:04:31.513Z,999.09
2022-08-16T07:04:57.436Z,999.14
2022-08-16T07:05:41.181Z,999.09
2022-08-16T07:06:18.470Z,999.11
2022-08-16T07:06:59.821Z,999.13
2022-08-16T07:07:39.508Z,999.13
2022-08-16T07:08:20.074Z,999.15
2022-08-16T07:09:00.504Z,999.15
2022-08-16T07:09:40.989Z,999.18
2022-08-16T07:10:25.585Z,999.17
2022-08-16T07:11:02.117Z,999.15
2022-08-16T07:11:46.373Z,999.2
2022-08-16T07:12:22.997Z,999.18
2022-08-16T07:13:08.416Z,999.15
2022-08-16T07:13:58.648Z,999.2
2022-08-16T07:14:27.101Z,999.17
2022-08-16T07:15:05.061Z,999.14
2022-08-16T07:15:50.260Z,999.21
2022-08-16T07:16:27.694Z,999.18
2022-08-16T07:17:08.062Z,999.21
2022-08-16T07:17:47.064Z,999.19
2022-08-16T07:18:27.552Z,999.15
2022-08-16T07:19:08.092Z,999.18
2022-08-16T07:20:04.217Z,999.17
2022-08-16T07:20:30.451Z,999.16
2022-08-16T07:21:09.568Z,999.18
2022-08-16T07:21:54.432Z,999.2
2022-08-16T07:22:36.966Z,999.17
2022-08-16T07:23:13.191Z,999.18
2022-08-16T07:23:56.878Z,999.18
2022-08-16T07:24:32.247Z,999.18
2022-08-16T07:25:12.713Z,999.2
2022-08-16T07:25:53.204Z,999.2
2022-08-16T07:26:33.786Z,999.23
2022-08-16T07:27:14.251Z,999.21
2022-08-16T07:27:54.811Z,999.24
2022-08-16T07:28:35.266Z,999.25
2022-08-16T07:29:15.776Z,999.27
2022-08-16T07:29:56.412Z,999.3
2022-08-16T07:30:38.676Z,999.32
2022-08-16T07:31:17.352Z,999.33
2022-08-16T07:31:57.850Z,999.32
2022-08-16T07:32:38.338Z,999.33
2022-08-16T07:33:51.601Z,999.3
2022-08-16T07:33:59.450Z,999.34
2022-08-16T07:34:48.340Z,999.35
2022-08-16T07:35:20.453Z,999.33
2022-08-16T07:36:00.904Z,999.32
2022-08-16T07:36:41.428Z,999.34
2022-08-16T07:37:23.158Z,999.35
2022-08-16T07:38:02.503Z,999.36
2022-08-16T07:38:43.016Z,999.33
2022-08-16T07:39:23.590Z,999.3
2022-08-16T07:40:07.551Z,999.32
2022-08-16T07:40:59.899Z,999.32
2022-08-16T07:41:25.075Z,999.32
2022-08-16T07:42:46.238Z,999.29
2022-08-16T07:43:28.883Z,999.3
2022-08-16T07:44:15.302Z,999.25
2022-08-16T07:46:37.402Z,999.22
2022-08-16T07:47:01.445Z,999.26
2022-08-16T07:47:41.915Z,999.29
2022-08-16T07:48:24.098Z,999.28
2022-08-16T07:49:04.530Z,999.31
2022-08-16T07:49:52.984Z,999.31
2022-08-16T07:50:55.095Z,999.33
2022-08-16T07:51:08.929Z,999.38
2022-08-16T07:51:48.500Z,999.34
2022-08-16T07:52:29.740Z,999.37
2022-08-16T07:53:10.372Z,999.38
2022-08-16T07:54:02.756Z,999.4
2022-08-16T07:54:32.456Z,999.39
2022-08-16T07:55:12.499Z,999.41
2022-08-16T07:55:53.215Z,999.4
2022-08-16T07:56:37.231Z,999.41
2022-08-16T07:57:15.374Z,999.41
2022-08-16T07:57:59.801Z,999.4
2022-08-16T07:58:38.165Z,999.36
2022-08-16T07:59:59.385Z,999.44
2022-08-16T08:00:39.941Z,999.39
2022-08-16T08:01:20.331Z,999.37
2022-08-16T08:02:01.718Z,999.38
2022-08-16T08:02:42.271Z,999.38
2022-08-16T08:03:22.867Z,999.33
2022-08-16T08:04:05.257Z,999.31
2022-08-16T08:04:47.586Z,999.34
2022-08-16T08:05:35.597Z,999.3
2022-08-16T08:06:10.296Z,999.32
2022-08-16T08:06:50.891Z,999.36
2022-08-16T08:07:32.481Z,999.37
2022-08-16T08:08:12.141Z,999.36
2022-08-16T08:08:57.111Z,999.37
2022-08-16T08:09:34.230Z,999.41
2022-08-16T08:10:17.430Z,999.42
2022-08-16T08:10:55.355Z,999.4
2022-08-16T08:11:35.938Z,999.41
2022-08-16T08:14:06.577Z,999.46
2022-08-16T08:14:47.058Z,999.46
2022-08-16T08:15:32.586Z,999.43
2022-08-16T08:16:18.735Z,999.43
2022-08-16T08:16:51.126Z,999.44
2022-08-16T08:17:42.449Z,999.47
2022-08-16T08:18:29.603Z,999.43
2022-08-16T08:18:56.334Z,999.43
2022-08-16T08:19:35.385Z,999.43
2022-08-16T08:20:20.104Z,999.45
2022-08-16T08:20:58.852Z,999.46
2022-08-16T08:22:00.473Z,999.47
2022-08-16T08:22:22.132Z,999.49
2022-08-16T08:23:01.970Z,999.48
2022-08-16T08:23:43.223Z,999.51
2022-08-16T08:24:31.440Z,999.49
2022-08-16T08:25:05.916Z,999.49
2022-08-16T08:27:05.774Z,999.53
2022-08-16T08:27:46.964Z,999.57
2022-08-16T08:28:28.296Z,999.53
2022-08-16T08:29:09.642Z,999.57
2022-08-16T08:30:09.503Z,999.59
2022-08-16T08:30:50.673Z,999.58
2022-08-16T08:31:16.295Z,999.58
2022-08-16T08:31:56.808Z,999.58
2022-08-16T08:32:51.246Z,999.66
2022-08-16T08:33:19.340Z,999.66
2022-08-16T08:34:04.873Z,999.66
2022-08-16T08:34:43.801Z,999.66
2022-08-16T08:36:47.297Z,999.65
2022-08-16T08:37:54.006Z,999.68
2022-08-16T08:38:44.357Z,999.69
2022-08-16T08:39:20.856Z,999.71
2022-08-16T08:40:03.881Z,999.7
2022-08-16T08:40:47.438Z,999.7
2022-08-16T08:41:28.670Z,999.71
2022-08-16T08:42:09.050Z,999.72
2022-08-16T08:42:49.994Z,999.71
2022-08-16T08:43:30.750Z,999.73
2022-08-16T08:44:28.144Z,999.74
2022-08-16T08:44:52.074Z,999.75
2022-08-16T08:45:52.614Z,999.72
2022-08-16T08:46:18.046Z,999.71
2022-08-16T08:46:59.624Z,999.74
2022-08-16T08:47:36.977Z,999.76
2022-08-16T08:48:29.286Z,999.7
2022-08-16T08:49:02.265Z,999.73
2022-08-16T08:49:46.061Z,999.71
2022-08-16T08:50:31.868Z,999.74
2022-08-16T08:51:01.556Z,999.76
2022-08-16T08:51:42.109Z,999.77
2022-08-16T08:52:34.064Z,999.77
2022-08-16T08:53:03.273Z,999.74
2022-08-16T08:53:44.278Z,999.77
2022-08-16T08:54:24.795Z,999.77
2022-08-16T08:55:09.413Z,999.78
2022-08-16T08:55:45.911Z,999.77
2022-08-16T08:56:26.421Z,999.73
2022-08-16T08:57:06.981Z,999.69
2022-08-16T08:57:47.607Z,999.72
2022-08-16T08:58:34.181Z,999.7
2022-08-16T08:59:13.232Z,999.69
2022-08-16T08:59:49.080Z,999.69
2022-08-16T09:00:30.023Z,999.73
2022-08-16T09:01:10.206Z,999.71
2022-08-16T09:01:56.412Z,999.75
2022-08-16T09:02:31.370Z,999.69
2022-08-16T09:03:12.071Z,999.69
2022-08-16T09:06:32.121Z,999.77
2022-08-16T09:07:21.569Z,999.79
2022-08-16T09:11:03.488Z,999.87
2022-08-16T09:11:43.961Z,999.9
2022-08-16T09:12:29.401Z,999.95
2022-08-16T09:13:05.057Z,999.91
2022-08-16T09:13:47.054Z,999.91
2022-08-16T09:14:26.230Z,999.91
2022-08-16T09:15:08.010Z,999.88
2022-08-16T09:15:49.636Z,999.93
2022-08-16T09:16:57.675Z,999.92
2022-08-16T09:17:11.346Z,999.94
2022-08-16T09:17:52.307Z,999.97
2022-08-16T09:18:35.529Z,999.78
2022-08-16T09:19:12.671Z,999.94
2022-08-16T09:19:55.339Z,999.91
2022-08-16T09:20:34.142Z,999.9
2022-08-16T09:21:14.603Z,999.91
2022-08-16T09:21:56.186Z,999.89
2022-08-16T09:22:35.838Z,999.93
2022-08-16T09:23:18.397Z,999.9
2022-08-16T09:23:57.656Z,999.91
2022-08-16T09:24:51.439Z,999.94
2022-08-16T09:25:25.683Z,999.9
2022-08-16T09:26:00.560Z,999.96
2022-08-16T09:26:43.051Z,999.96
2022-08-16T09:27:23.595Z,999.96
2022-08-16T09:28:09.122Z,999.96
2022-08-16T09:29:16.328Z,999.91
2022-08-16T09:29:44.285Z,999.91
2022-08-16T09:30:32.653Z,999.97
2022-08-16T09:30:48.817Z,999.73
2022-08-16T09:31:29.444Z,999.91
2022-08-16T09:32:10.110Z,999.89
2022-08-16T09:32:51.565Z,999.88
2022-08-16T09:33:32.457Z,999.91
2022-08-16T09:34:17.274Z,999.88
2022-08-16T09:34:54.100Z,999.86
2022-08-16T09:35:34.623Z,999.9
2022-08-16T09:36:31.782Z,999.9
2022-08-16T09:36:56.508Z,999.91
2022-08-16T09:37:37.174Z,999.91
2022-08-16T09:38:22.235Z,999.91
2022-08-16T09:38:59.754Z,999.9
2022-08-16T09:39:41.684Z,999.92
2022-08-16T09:40:32.043Z,999.91
2022-08-16T09:41:00.306Z,999.91
2022-08-16T09:41:40.794Z,999.88
2022-08-16T09:42:21.326Z,999.87
2022-08-16T09:43:01.935Z,999.88
2022-08-16T09:46:50.061Z,999.87
2022-08-16T09:51:57.413Z,999.91
2022-08-16T09:52:39.600Z,999.89
2022-08-16T09:53:18.122Z,999.85
2022-08-16T09:53:58.637Z,999.84
2022-08-16T09:54:39.212Z,999.85
2022-08-16T09:55:19.847Z,999.84
2022-08-16T09:56:00.578Z,999.81
2022-08-16T09:56:51.515Z,999.85
2022-08-16T09:58:02.161Z,999.8
2022-08-16T09:59:04.094Z,999.82
2022-08-16T09:59:23.146Z,999.81
2022-08-16T10:00:03.619Z,999.8
2022-08-16T10:03:23.629Z,999.76
2022-08-16T10:04:04.272Z,999.74
2022-08-16T10:04:53.133Z,999.77
2022-08-16T10:05:25.014Z,999.74
2022-08-16T10:06:05.529Z,999.72
2022-08-16T10:06:46.478Z,999.72
2022-08-16T10:10:01.060Z,999.74
2022-08-16T10:10:41.154Z,999.69
2022-08-16T10:11:24.079Z,999.72
2022-08-16T10:12:10.902Z,999.69
2022-08-16T10:12:44.020Z,999.67
2022-08-16T10:16:59.729Z,999.7
2022-08-16T10:17:34.479Z,999.7
2022-08-16T10:18:41.398Z,999.7
2022-08-16T10:19:01.079Z,999.69
2022-08-16T10:19:36.088Z,999.72
2022-08-16T10:20:17.794Z,999.67
2022-08-16T10:20:57.392Z,999.72
2022-08-16T10:21:38.519Z,999.69
2022-08-16T10:22:19.440Z,999.71
2022-08-16T10:23:05.675Z,999.73
2022-08-16T10:23:41.859Z,999.71
2022-08-16T10:24:28.237Z,999.67
2022-08-16T10:25:04.599Z,999.68
2022-08-16T10:28:30.652Z,999.71
2022-08-16T10:29:04.735Z,999.66
2022-08-16T10:29:59.851Z,999.72
2022-08-16T10:30:35.065Z,999.69
2022-08-16T10:31:43.373Z,999.66
2022-08-16T10:35:06.534Z,999.71
2022-08-16T10:35:46.971Z,999.74
2022-08-16T10:36:38.034Z,999.76
2022-08-16T10:37:07.485Z,999.76
2022-08-16T10:37:48.199Z,999.72
2022-08-16T10:38:29.644Z,999.72
2022-08-16T10:39:10.214Z,999.75
2022-08-16T10:39:51.126Z,999.75
2022-08-16T10:40:33.157Z,999.71
2022-08-16T10:41:15.952Z,999.72
2022-08-16T10:44:53.903Z,999.77
2022-08-16T10:45:31.608Z,999.78